createdAt,value
2022-09-16T00:00:44.592Z,11.38
2022-09-16T00:03:11.912Z,11.39
2022-09-16T00:05:42.275Z,11.38
2022-09-16T00:08:08.936Z,11.29
2022-09-16T00:10:34.962Z,11.29
2022-09-16T00:13:01.282Z,11.31
2022-09-16T00:15:27.080Z,11.27
2022-09-16T00:17:52.823Z,11.35
2022-09-16T00:20:18.631Z,11.33
2022-09-16T00:22:47.422Z,11.19
2022-09-16T00:25:13.296Z,11.16
2022-09-16T00:27:40.418Z,11.17
2022-09-16T00:30:06.875Z,11.15
2022-09-16T00:32:32.706Z,11.15
2022-09-16T00:34:58.447Z,11.08
2022-09-16T00:37:24.272Z,11.15
2022-09-16T00:39:50.373Z,11.17
2022-09-16T00:42:17.617Z,11.19
2022-09-16T00:45:01.587Z,11.14
2022-09-16T00:48:06.994Z,11.02
2022-09-16T00:50:53.304Z,10.97
2022-09-16T00:53:26.655Z,10.98
2022-09-16T00:55:55.526Z,10.99
2022-09-16T00:58:27.260Z,11.03
2022-09-16T01:00:53.163Z,10.97
2022-09-16T01:03:19.925Z,11.19
2022-09-16T01:05:46.816Z,11.15
2022-09-16T01:08:12.576Z,11.14
2022-09-16T01:10:41.511Z,11.06
2022-09-16T01:13:10.856Z,11.11
2022-09-16T01:15:42.465Z,11.04
2022-09-16T01:18:25.636Z,11.01
2022-09-16T01:21:11.627Z,10.73
2022-09-16T01:23:56.325Z,10.88
2022-09-16T01:26:22.030Z,10.86
2022-09-16T01:29:23.837Z,10.93
2022-09-16T01:32:01.574Z,10.94
2022-09-16T01:34:46.931Z,10.84
2022-09-16T01:37:54.328Z,10.82
2022-09-16T01:40:38.492Z,10.91
2022-09-16T01:43:19.150Z,10.76
2022-09-16T01:46:09.110Z,10.81
2022-09-16T01:48:43.079Z,10.88
2022-09-16T01:51:19.129Z,10.91
2022-09-16T01:54:09.235Z,10.88
2022-09-16T01:57:02.409Z,10.92
2022-09-16T01:59:37.536Z,10.77
2022-09-16T02:02:17.396Z,10.84
2022-09-16T02:04:49.294Z,10.87
2022-09-16T02:07:19.978Z,10.80
2022-09-16T02:09:52.164Z,10.87
2022-09-16T02:12:23.774Z,11.01
2022-09-16T02:14:52.431Z,10.92
2022-09-16T02:17:22.555Z,10.84
2022-09-16T02:20:02.663Z,10.74
2022-09-16T02:22:37.786Z,10.66
2022-09-16T02:25:06.676Z,10.80
2022-09-16T02:27:35.174Z,10.94
2022-09-16T02:30:10.337Z,10.90
2022-09-16T02:32:42.934Z,10.80
2022-09-16T02:35:12.055Z,10.74
2022-09-16T02:37:46.548Z,10.70
2022-09-16T02:40:19.083Z,10.82
2022-09-16T02:42:45.155Z,10.93
2022-09-16T02:45:11.841Z,10.76
2022-09-16T02:47:52.580Z,10.74
2022-09-16T02:50:38.035Z,10.60
2022-09-16T02:53:16.848Z,10.72
2022-09-16T02:55:58.844Z,10.72
2022-09-16T02:58:24.636Z,10.48
2022-09-16T03:00:54.361Z,10.56
2022-09-16T03:03:20.795Z,10.70
2022-09-16T03:06:24.326Z,10.80
2022-09-16T03:08:51.819Z,10.61
2022-09-16T03:11:53.043Z,10.55
2022-09-16T03:14:24.876Z,10.59
2022-09-16T03:17:09.051Z,10.57
2022-09-16T03:20:20.244Z,10.68
2022-09-16T03:22:52.363Z,10.71
2022-09-16T03:25:29.274Z,10.72
2022-09-16T03:28:03.533Z,10.72
2022-09-16T03:30:34.353Z,10.65
2022-09-16T03:33:07.984Z,10.66
2022-09-16T03:35:41.655Z,10.69
2022-09-16T03:38:10.188Z,10.70
2022-09-16T03:40:37.254Z,10.64
2022-09-16T03:43:12.904Z,10.63
2022-09-16T03:45:42.108Z,10.57
2022-09-16T03:48:08.939Z,10.58
2022-09-16T03:50:35.408Z,10.57
2022-09-16T03:53:01.941Z,10.60
2022-09-16T03:55:27.789Z,10.63
2022-09-16T03:57:54.243Z,10.50
2022-09-16T04:00:20.691Z,10.55
2022-09-16T04:02:46.490Z,10.51
2022-09-16T04:05:12.366Z,10.52
2022-09-16T04:07:38.277Z,10.45
2022-09-16T04:10:05.483Z,10.28
2022-09-16T04:12:33.069Z,10.27
2022-09-16T04:15:00.786Z,10.29
2022-09-16T04:17:26.835Z,10.27
2022-09-16T04:19:52.547Z,10.15
2022-09-16T04:22:18.494Z,10.20
2022-09-16T04:24:44.264Z,10.35
2022-09-16T04:27:10.036Z,10.31
2022-09-16T04:29:36.110Z,10.27
2022-09-16T04:32:02.136Z,10.28
2022-09-16T04:34:27.973Z,10.09
2022-09-16T04:36:53.925Z,10.17
2022-09-16T04:39:19.673Z,10.19
2022-09-16T04:41:45.449Z,10.02
2022-09-16T04:44:11.389Z,10.16
2022-09-16T04:46:37.235Z,10.25
2022-09-16T04:49:03.317Z,10.17
2022-09-16T04:51:29.217Z,10.23
2022-09-16T04:53:56.504Z,10.28
2022-09-16T04:56:27.893Z,10.34
2022-09-16T04:58:56.869Z,10.35
2022-09-16T05:01:25.431Z,10.35
2022-09-16T05:03:53.813Z,10.27
2022-09-16T05:06:27.871Z,10.19
2022-09-16T05:08:55.497Z,10.18
2022-09-16T05:11:26.869Z,10.06
2022-09-16T05:13:53.308Z,10.00
2022-09-16T05:16:21.722Z,10.09
2022-09-16T05:18:49.998Z,10.14
2022-09-16T05:21:18.400Z,10.16
2022-09-16T05:23:46.957Z,10.21
2022-09-16T05:26:18.724Z,10.20
2022-09-16T05:28:44.697Z,10.17
2022-09-16T05:31:16.557Z,10.26
2022-09-16T05:33:44.563Z,10.24
2022-09-16T05:36:16.048Z,9.99
2022-09-16T05:38:54.348Z,10.09
2022-09-16T05:41:28.568Z,10.25
2022-09-16T05:43:58.070Z,10.24
2022-09-16T05:46:24.122Z,10.34
2022-09-16T05:48:50.185Z,10.11
2022-09-16T05:51:20.621Z,10.17
2022-09-16T05:53:48.133Z,10.19
2022-09-16T05:56:16.279Z,10.08
2022-09-16T05:58:42.874Z,9.94
2022-09-16T06:01:14.736Z,10.11
2022-09-16T06:03:42.044Z,10.08
2022-09-16T06:06:25.430Z,10.24
2022-09-16T06:08:54.724Z,10.12
2022-09-16T06:11:20.528Z,10.18
2022-09-16T06:13:46.834Z,10.19
2022-09-16T06:16:13.871Z,10.09
2022-09-16T06:18:39.959Z,10.19
2022-09-16T06:21:11.045Z,10.24
2022-09-16T06:23:38.362Z,10.28
2022-09-16T06:26:07.243Z,10.49
2022-09-16T06:28:33.604Z,10.57
2022-09-16T06:31:20.202Z,10.47
2022-09-16T06:33:46.217Z,10.45
2022-09-16T06:36:14.472Z,10.63
2022-09-16T06:38:40.619Z,10.52
2022-09-16T06:41:08.347Z,10.55
2022-09-16T06:43:35.109Z,10.35
2022-09-16T06:46:05.740Z,10.48
2022-09-16T06:48:33.272Z,10.52
2022-09-16T06:51:01.508Z,10.54
2022-09-16T06:53:28.162Z,10.57
2022-09-16T06:55:54.090Z,10.63
2022-09-16T06:58:19.958Z,10.86
2022-09-16T07:00:45.857Z,10.88
2022-09-16T07:03:11.659Z,10.86
2022-09-16T07:05:37.429Z,10.99
2022-09-16T07:08:03.228Z,11.03
2022-09-16T07:10:29.994Z,11.12
2022-09-16T07:12:55.936Z,11.21
2022-09-16T07:15:21.694Z,11.26
2022-09-16T07:17:52.270Z,11.02
2022-09-16T07:20:18.000Z,10.91
2022-09-16T07:22:44.223Z,10.99
2022-09-16T07:25:09.980Z,11.05
2022-09-16T07:27:35.737Z,10.92
2022-09-16T07:30:03.511Z,10.82
2022-09-16T07:32:31.489Z,10.80
2022-09-16T07:34:57.313Z,10.73
2022-09-16T07:37:23.128Z,10.84
2022-09-16T07:39:49.473Z,10.95
2022-09-16T07:42:15.576Z,11.01
2022-09-16T07:44:41.343Z,11.24
2022-09-16T07:47:07.103Z,11.23
2022-09-16T07:49:32.940Z,11.32
2022-09-16T07:51:58.757Z,11.17
2022-09-16T07:54:24.704Z,11.13
2022-09-16T07:56:50.503Z,11.10
2022-09-16T07:59:19.019Z,11.02
2022-09-16T08:01:46.120Z,11.10
2022-09-16T08:04:12.436Z,11.06
2022-09-16T08:06:39.269Z,11.19
2022-09-16T08:09:27.410Z,11.32
2022-09-16T08:11:50.902Z,11.29
2022-09-16T08:14:16.688Z,11.38
2022-09-16T08:16:42.469Z,11.45
2022-09-16T08:19:08.464Z,11.57
2022-09-16T08:21:34.219Z,11.62
2022-09-16T08:24:00.095Z,11.54
2022-09-16T08:26:26.263Z,11.40
2022-09-16T08:29:09.363Z,11.40
2022-09-16T08:31:36.370Z,11.67
2022-09-16T08:34:02.348Z,11.81
2022-09-16T08:36:28.236Z,11.93
2022-09-16T08:38:55.993Z,12.07
2022-09-16T08:41:53.156Z,11.81
2022-09-16T08:44:41.148Z,11.78
2022-09-16T08:47:43.086Z,11.78
2022-09-16T08:50:16.488Z,11.78
2022-09-16T08:52:44.590Z,11.79
2022-09-16T08:55:31.434Z,11.93
2022-09-16T08:58:03.491Z,12.11
2022-09-16T09:00:30.566Z,12.26
2022-09-16T09:03:13.772Z,12.30
2022-09-16T09:05:55.036Z,12.61
2022-09-16T09:08:44.587Z,12.83
2022-09-16T09:11:28.928Z,12.50
2022-09-16T09:14:10.249Z,12.55
2022-09-16T09:16:42.073Z,12.59
2022-09-16T09:19:10.542Z,12.61
2022-09-16T09:21:45.869Z,12.26
2022-09-16T09:24:27.423Z,12.35
2022-09-16T09:27:14.227Z,12.67
2022-09-16T09:30:00.202Z,13.05
2022-09-16T09:32:49.014Z,13.16
2022-09-16T09:35:18.546Z,12.98
2022-09-16T09:38:02.828Z,12.90
2022-09-16T09:40:51.573Z,12.80
2022-09-16T09:43:48.362Z,12.93
2022-09-16T09:46:25.797Z,12.93
2022-09-16T09:49:15.697Z,12.74
2022-09-16T09:51:50.891Z,12.86
2022-09-16T09:54:26.073Z,12.97
2022-09-16T09:57:16.170Z,12.95
2022-09-16T09:59:41.902Z,13.15
2022-09-16T10:02:16.217Z,13.33
2022-09-16T10:04:42.925Z,13.05
2022-09-16T10:07:11.278Z,12.70
2022-09-16T10:09:47.730Z,12.43
2022-09-16T10:12:13.501Z,12.46
2022-09-16T10:14:39.370Z,12.88
2022-09-16T10:17:15.017Z,12.76
2022-09-16T10:20:23.148Z,12.51
2022-09-16T10:23:00.596Z,12.60
2022-09-16T10:25:28.877Z,12.64
2022-09-16T10:28:00.705Z,12.57
2022-09-16T10:30:44.333Z,12.60
2022-09-16T10:33:29.413Z,12.68
2022-09-16T10:35:59.831Z,12.36
2022-09-16T10:39:04.418Z,12.57
2022-09-16T10:41:46.957Z,12.90
2022-09-16T10:44:26.524Z,13.27
2022-09-16T10:47:03.039Z,14.44
2022-09-16T10:49:37.400Z,14.57
2022-09-16T10:52:23.660Z,14.09
2022-09-16T10:54:50.187Z,13.50
2022-09-16T10:57:31.866Z,13.33
2022-09-16T11:00:13.455Z,13.35
2022-09-16T11:03:07.670Z,13.61
2022-09-16T11:05:57.687Z,14.75
2022-09-16T11:08:34.077Z,16.13
2022-09-16T11:11:11.776Z,17.00
2022-09-16T11:13:40.829Z,16.77
2022-09-16T11:16:41.492Z,15.85
2022-09-16T11:19:19.775Z,16.32
2022-09-16T11:22:08.756Z,16.11
2022-09-16T11:25:05.448Z,16.85
2022-09-16T11:27:53.637Z,17.25
2022-09-16T11:30:24.739Z,17.52
2022-09-16T11:32:53.412Z,18.10
2022-09-16T11:35:35.209Z,18.60
2022-09-16T11:38:00.939Z,18.83
2022-09-16T11:40:33.307Z,19.34
2022-09-16T11:43:35.267Z,18.30
2022-09-16T11:46:16.595Z,18.18
2022-09-16T11:48:51.549Z,18.53
2022-09-16T11:51:35.668Z,18.55
2022-09-16T11:54:28.990Z,18.03
2022-09-16T11:57:03.520Z,17.72
2022-09-16T11:59:36.918Z,18.41
2022-09-16T12:02:11.771Z,18.91
2022-09-16T12:04:48.786Z,17.72
2022-09-16T12:07:49.414Z,17.14
2022-09-16T12:10:27.211Z,17.55
2022-09-16T12:13:00.511Z,16.72
2022-09-16T12:15:36.907Z,15.79
2022-09-16T12:18:24.635Z,15.41
2022-09-16T12:20:56.520Z,15.54
2022-09-16T12:23:25.401Z,16.59
2022-09-16T12:26:08.796Z,18.29
2022-09-16T12:28:51.064Z,18.74
2022-09-16T12:31:24.375Z,19.27
2022-09-16T12:34:02.085Z,18.72
2022-09-16T12:36:32.585Z,17.37
2022-09-16T12:38:59.225Z,16.20
2022-09-16T12:42:00.245Z,15.52
2022-09-16T12:44:40.892Z,15.44
2022-09-16T12:47:56.932Z,14.95
2022-09-16T12:50:50.192Z,15.05
2022-09-16T12:53:59.860Z,15.45
2022-09-16T12:56:36.372Z,14.90
2022-09-16T12:59:22.918Z,14.17
2022-09-16T13:01:57.766Z,14.28
2022-09-16T13:04:33.574Z,14.36
2022-09-16T13:07:01.217Z,14.19
2022-09-16T13:09:32.436Z,14.74
2022-09-16T13:15:06.048Z,15.52
2022-09-16T13:17:35.474Z,16.44
2022-09-16T13:20:14.703Z,17.19
2022-09-16T13:22:49.409Z,17.25
2022-09-16T13:25:26.899Z,17.56
2022-09-16T13:28:01.799Z,17.85
2022-09-16T13:30:27.683Z,17.78
2022-09-16T13:32:53.473Z,17.73
2022-09-16T13:35:20.075Z,17.85
2022-09-16T13:37:47.724Z,17.12
2022-09-16T13:40:31.658Z,16.77
2022-09-16T13:43:29.505Z,16.52
2022-09-16T13:46:27.642Z,16.68
2022-09-16T13:49:03.434Z,16.35
2022-09-16T13:51:35.858Z,15.97
2022-09-16T13:54:03.746Z,16.02
2022-09-16T13:56:54.501Z,15.69
2022-09-16T13:59:23.165Z,15.49
2022-09-16T14:02:13.544Z,15.20
2022-09-16T14:04:45.906Z,15.03
2022-09-16T14:07:40.807Z,14.83
2022-09-16T14:10:29.317Z,14.43
2022-09-16T14:12:58.156Z,14.24
2022-09-16T14:15:25.317Z,13.95
2022-09-16T14:17:57.561Z,13.78
2022-09-16T14:20:24.803Z,13.65
2022-09-16T14:23:17.264Z,13.27
2022-09-16T14:25:43.124Z,13.17
2022-09-16T14:28:20.821Z,13.06
2022-09-16T14:30:59.705Z,12.85
2022-09-16T14:33:33.132Z,12.66
2022-09-16T14:36:00.925Z,12.52
2022-09-16T14:38:45.536Z,12.27
2022-09-16T14:41:21.336Z,12.04
2022-09-16T14:43:47.303Z,11.92
2022-09-16T14:46:13.222Z,11.74
2022-09-16T14:48:41.461Z,11.55
2022-09-16T14:51:20.940Z,11.43
2022-09-16T14:54:13.613Z,11.50
2022-09-16T14:56:39.696Z,11.44
2022-09-16T14:59:11.428Z,11.51
2022-09-16T15:01:38.478Z,11.41
2022-09-16T15:04:17.713Z,11.47
2022-09-16T15:06:49.916Z,11.37
2022-09-16T15:09:28.659Z,11.39
2022-09-16T15:12:00.150Z,11.54
2022-09-16T15:14:26.092Z,11.61
2022-09-16T15:17:03.091Z,11.33
2022-09-16T15:19:35.702Z,11.31
2022-09-16T15:22:03.134Z,11.16
2022-09-16T15:24:32.596Z,11.40
2022-09-16T15:26:59.322Z,11.60
2022-09-16T15:29:29.952Z,11.95
2022-09-16T15:32:20.205Z,12.49
2022-09-16T15:34:46.122Z,12.97
2022-09-16T15:37:32.917Z,13.27
2022-09-16T15:40:17.493Z,13.54
2022-09-16T15:42:43.308Z,13.77
2022-09-16T15:45:21.812Z,13.59
2022-09-16T15:48:01.376Z,13.63
2022-09-16T15:50:36.660Z,13.71
2022-09-16T15:53:07.928Z,13.64
2022-09-16T15:55:48.038Z,13.60
2022-09-16T15:58:31.833Z,13.71
2022-09-16T16:01:09.686Z,13.58
2022-09-16T16:03:44.742Z,13.43
2022-09-16T16:06:11.624Z,13.24
2022-09-16T16:08:42.415Z,13.08
2022-09-16T16:11:11.605Z,12.77
2022-09-16T16:13:38.282Z,12.36
2022-09-16T16:16:06.814Z,12.53
2022-09-16T16:18:33.392Z,12.33
2022-09-16T16:21:03.950Z,12.36
2022-09-16T16:23:29.735Z,12.29
2022-09-16T16:25:55.586Z,12.01
2022-09-16T16:28:24.382Z,12.10
2022-09-16T16:30:50.284Z,11.94
2022-09-16T16:33:16.205Z,11.96
2022-09-16T16:35:42.027Z,12.14
2022-09-16T16:38:07.821Z,12.12
2022-09-16T16:40:33.715Z,11.97
2022-09-16T16:42:59.480Z,11.97
2022-09-16T16:45:25.355Z,11.74
2022-09-16T16:47:52.901Z,11.76
2022-09-16T16:50:18.942Z,11.81
2022-09-16T16:52:50.470Z,11.93
2022-09-16T16:55:16.309Z,11.67
2022-09-16T16:57:43.411Z,11.67
2022-09-16T17:00:09.962Z,11.64
2022-09-16T17:02:35.875Z,11.77
2022-09-16T17:05:01.824Z,11.81
2022-09-16T17:07:28.464Z,11.44
2022-09-16T17:09:56.512Z,11.17
2022-09-16T17:12:22.329Z,10.95
2022-09-16T17:14:48.148Z,10.90
2022-09-16T17:17:14.031Z,10.72
2022-09-16T17:19:39.804Z,10.74
2022-09-16T17:22:05.630Z,10.56
2022-09-16T17:24:32.366Z,10.55
2022-09-16T17:26:58.171Z,10.58
2022-09-16T17:29:24.321Z,10.60
2022-09-16T17:31:50.142Z,10.61
2022-09-16T17:34:16.089Z,10.42
2022-09-16T17:36:44.851Z,10.35
2022-09-16T17:39:16.200Z,10.28
2022-09-16T17:41:42.944Z,10.35
2022-09-16T17:44:10.982Z,10.39
2022-09-16T17:46:38.426Z,10.45
2022-09-16T17:49:07.619Z,10.35
2022-09-16T17:51:35.035Z,10.40
2022-09-16T17:54:02.617Z,10.36
2022-09-16T17:56:28.974Z,10.43
2022-09-16T17:58:54.841Z,10.51
2022-09-16T18:01:23.529Z,10.45
2022-09-16T18:03:54.614Z,10.49
2022-09-16T18:06:22.861Z,10.41
2022-09-16T18:08:51.177Z,10.34
2022-09-16T18:11:18.071Z,10.36
2022-09-16T18:13:47.370Z,10.08
2022-09-16T18:16:15.848Z,10.11
2022-09-16T18:18:43.042Z,10.25
2022-09-16T18:21:13.540Z,10.33
2022-09-16T18:23:40.973Z,10.25
2022-09-16T18:26:12.459Z,10.07
2022-09-16T18:29:05.129Z,10.13
2022-09-16T18:31:26.668Z,10.31
2022-09-16T18:33:54.164Z,10.29
2022-09-16T18:36:23.600Z,10.24
2022-09-16T18:38:53.402Z,10.22
2022-09-16T18:41:22.624Z,10.37
2022-09-16T18:43:59.042Z,10.27
2022-09-16T18:46:30.904Z,10.24
2022-09-16T18:48:57.678Z,10.17
2022-09-16T18:51:26.088Z,10.02
2022-09-16T18:53:57.334Z,10.04
2022-09-16T18:56:24.811Z,10.09
2022-09-16T18:59:19.514Z,10.09
2022-09-16T19:01:38.950Z,10.03
2022-09-16T19:04:07.739Z,10.09
2022-09-16T19:06:42.259Z,10.07
2022-09-16T19:09:10.729Z,9.99
2022-09-16T19:11:37.901Z,10.01
2022-09-16T19:14:05.643Z,9.80
2022-09-16T19:16:32.477Z,9.84
2022-09-16T19:19:00.170Z,9.80
2022-09-16T19:21:26.269Z,9.88
2022-09-16T19:23:56.085Z,9.78
2022-09-16T19:26:22.219Z,9.88
2022-09-16T19:28:48.132Z,9.77
2022-09-16T19:31:14.463Z,9.92
2022-09-16T19:33:41.732Z,9.89
2022-09-16T19:36:18.930Z,9.85
2022-09-16T19:38:46.509Z,9.90
2022-09-16T19:41:13.580Z,10.05
2022-09-16T19:43:40.102Z,9.97
2022-09-16T19:46:11.977Z,10.07
2022-09-16T19:48:39.756Z,9.93
2022-09-16T19:51:07.860Z,10.01
2022-09-16T19:53:35.124Z,9.92
2022-09-16T19:56:06.730Z,9.88
2022-09-16T19:58:34.294Z,9.92
2022-09-16T20:01:01.484Z,9.91
2022-09-16T20:03:31.931Z,9.86
2022-09-16T20:06:02.181Z,9.66
2022-09-16T20:08:28.125Z,9.63
2022-09-16T20:10:54.149Z,9.69
2022-09-16T20:13:20.138Z,9.93
2022-09-16T20:15:45.984Z,9.87
2022-09-16T20:18:11.815Z,9.84
2022-09-16T20:20:37.626Z,9.80
2022-09-16T20:23:03.530Z,9.74
2022-09-16T20:25:31.162Z,9.53
2022-09-16T20:27:56.978Z,9.61
2022-09-16T20:30:23.169Z,9.88
2022-09-16T20:32:49.192Z,9.87
2022-09-16T20:35:15.075Z,9.66
2022-09-16T20:37:42.844Z,9.75
2022-09-16T20:40:08.979Z,9.63
2022-09-16T20:42:34.813Z,9.51
2022-09-16T20:45:00.564Z,9.55
2022-09-16T20:47:29.392Z,9.45
2022-09-16T20:49:55.439Z,9.61
2022-09-16T20:52:21.538Z,9.39
2022-09-16T20:54:47.741Z,9.47
2022-09-16T20:57:13.538Z,9.52
2022-09-16T20:59:39.683Z,9.54
2022-09-16T21:02:05.567Z,9.55
2022-09-16T21:04:31.332Z,9.57
2022-09-16T21:06:57.173Z,9.55
2022-09-16T21:09:25.639Z,9.54
2022-09-16T21:11:51.932Z,9.57
2022-09-16T21:14:20.690Z,9.57
2022-09-16T21:16:47.323Z,9.31
2022-09-16T21:19:13.660Z,9.31
2022-09-16T21:21:43.499Z,9.31
2022-09-16T21:24:09.666Z,9.34
2022-09-16T21:26:36.990Z,9.35
2022-09-16T21:29:10.191Z,9.20
2022-09-16T21:31:37.760Z,9.20
2022-09-16T21:34:08.656Z,9.26
2022-09-16T21:36:39.413Z,9.28
2022-09-16T21:39:06.566Z,9.31
2022-09-16T21:41:32.968Z,9.40
2022-09-16T21:43:58.841Z,9.32
2022-09-16T21:46:26.971Z,9.40
2022-09-16T21:48:57.427Z,9.49
2022-09-16T21:51:23.942Z,9.29
2022-09-16T21:53:49.910Z,9.36
2022-09-16T21:56:20.731Z,9.26
2022-09-16T21:58:48.164Z,9.38
2022-09-16T22:01:17.306Z,9.29
2022-09-16T22:03:45.239Z,9.21
2022-09-16T22:06:13.385Z,9.13
2022-09-16T22:08:48.068Z,9.24
2022-09-16T22:11:16.789Z,9.19
2022-09-16T22:13:42.799Z,9.23
2022-09-16T22:16:13.792Z,9.14
2022-09-16T22:18:39.756Z,9.20
2022-09-16T22:21:11.488Z,9.11
2022-09-16T22:23:38.901Z,9.09
2022-09-16T22:26:06.892Z,9.19
2022-09-16T22:28:34.478Z,9.21
2022-09-16T22:31:06.492Z,9.26
2022-09-16T22:33:33.473Z,9.28
2022-09-16T22:36:08.166Z,9.13
2022-09-16T22:38:34.414Z,9.09
2022-09-16T22:41:02.244Z,9.14
2022-09-16T22:43:28.315Z,9.13
2022-09-16T22:46:03.005Z,9.10
2022-09-16T22:48:29.197Z,9.05
2022-09-16T22:50:59.302Z,9.10
2022-09-16T22:53:27.491Z,9.01
2022-09-16T22:56:02.415Z,9.03
2022-09-16T22:58:29.058Z,8.99
2022-09-16T23:01:10.502Z,9.02
2022-09-16T23:03:37.188Z,9.05
2022-09-16T23:06:06.592Z,9.19
2022-09-16T23:08:37.344Z,9.17
2022-09-16T23:11:05.555Z,9.24
2022-09-16T23:13:32.831Z,9.15
2022-09-16T23:16:04.583Z,9.05
2022-09-16T23:18:32.373Z,9.20
2022-09-16T23:21:03.929Z,9.03
2022-09-16T23:23:30.812Z,8.96
2022-09-16T23:26:01.885Z,9.04
2022-09-16T23:28:27.673Z,9.09
2022-09-16T23:30:53.456Z,8.99
2022-09-16T23:33:19.243Z,9.03
2022-09-16T23:35:49.525Z,9.07
2022-09-16T23:38:16.187Z,8.99
2022-09-16T23:40:42.418Z,9.09
2022-09-16T23:43:08.889Z,9.14
2022-09-16T23:45:35.295Z,9.09
2022-09-16T23:48:01.462Z,9.02
2022-09-16T23:50:27.229Z,8.88
2022-09-16T23:52:53.429Z,8.90
2022-09-16T23:55:19.289Z,9.00
2022-09-16T23:57:45.078Z,8.91
